createdAt,value
2022-10-03T00:01:53.912Z,14.40
2022-10-03T00:04:42.527Z,15.27
2022-10-03T00:07:16.697Z,15.30
2022-10-03T00:10:25.719Z,14.80
2022-10-03T00:12:55.409Z,14.67
2022-10-03T00:15:31.632Z,15.20
2022-10-03T00:18:25.196Z,15.73
2022-10-03T00:21:19.587Z,14.80
2022-10-03T00:24:13.773Z,15.87
2022-10-03T00:27:16.044Z,16.70
2022-10-03T00:30:02.666Z,15.40
2022-10-03T00:32:35.440Z,16.23
2022-10-03T00:35:20.911Z,15.87
2022-10-03T00:38:06.526Z,15.47
2022-10-03T00:41:04.480Z,15.27
2022-10-03T00:43:59.923Z,16.37
2022-10-03T00:46:49.035Z,16.10
2022-10-03T00:49:49.781Z,15.93
2022-10-03T00:53:17.978Z,15.47
2022-10-03T00:56:09.441Z,15.27
2022-10-03T00:58:53.061Z,15.77
2022-10-03T01:01:37.379Z,15.50
2022-10-03T01:04:30.316Z,16.63
2022-10-03T01:07:40.754Z,16.13
2022-10-03T01:10:31.744Z,15.53
2022-10-03T01:13:10.911Z,16.77
2022-10-03T01:16:05.413Z,16.20
2022-10-03T01:18:52.778Z,16.23
2022-10-03T01:21:47.603Z,14.83
2022-10-03T01:24:42.576Z,16.27
2022-10-03T01:27:15.787Z,15.17
2022-10-03T01:30:15.664Z,15.30
2022-10-03T01:33:16.085Z,15.97
2022-10-03T01:36:21.475Z,16.17
2022-10-03T01:38:53.749Z,15.70
2022-10-03T01:41:46.968Z,16.03
2022-10-03T01:44:31.119Z,16.60
2022-10-03T01:47:19.787Z,17.33
2022-10-03T01:49:52.181Z,16.90
2022-10-03T01:52:52.341Z,17.27
2022-10-03T01:55:41.972Z,16.40
2022-10-03T01:58:13.617Z,15.67
2022-10-03T02:00:49.905Z,16.90
2022-10-03T02:03:40.174Z,17.00
2022-10-03T02:06:41.471Z,15.87
2022-10-03T02:09:25.479Z,15.97
2022-10-03T02:12:09.463Z,16.63
2022-10-03T02:14:45.288Z,16.10
2022-10-03T02:17:33.152Z,17.30
2022-10-03T02:20:55.727Z,16.83
2022-10-03T02:23:45.238Z,17.10
2022-10-03T02:26:54.534Z,16.13
2022-10-03T02:30:02.484Z,16.20
2022-10-03T02:32:32.438Z,16.43
2022-10-03T02:35:17.782Z,17.00
2022-10-03T02:38:06.529Z,16.50
2022-10-03T02:41:00.650Z,16.50
2022-10-03T02:43:48.961Z,15.63
2022-10-03T02:46:37.602Z,16.47
2022-10-03T02:49:23.282Z,15.80
2022-10-03T02:52:30.764Z,15.23
2022-10-03T02:55:17.085Z,15.37
2022-10-03T02:58:02.707Z,15.43
2022-10-03T03:00:50.217Z,15.23
2022-10-03T03:03:28.791Z,15.27
2022-10-03T03:06:33.027Z,14.43
2022-10-03T03:09:34.825Z,15.67
2022-10-03T03:12:28.559Z,15.33
2022-10-03T03:15:13.566Z,14.93
2022-10-03T03:18:02.434Z,15.03
2022-10-03T03:20:41.342Z,16.00
2022-10-03T03:23:39.174Z,15.10
2022-10-03T03:26:25.335Z,14.60
2022-10-03T03:29:34.139Z,14.77
2022-10-03T03:32:04.411Z,14.43
2022-10-03T03:34:36.524Z,14.80
2022-10-03T03:37:12.607Z,16.37
2022-10-03T03:40:29.722Z,15.77
2022-10-03T03:43:01.931Z,14.60
2022-10-03T03:45:41.184Z,14.83
2022-10-03T03:48:40.524Z,14.67
2022-10-03T03:51:33.156Z,14.60
2022-10-03T03:54:28.224Z,13.87
2022-10-03T03:57:24.262Z,13.70
2022-10-03T04:00:15.615Z,14.37
2022-10-03T04:02:51.855Z,14.73
2022-10-03T04:05:28.418Z,13.87
2022-10-03T04:07:58.141Z,13.33
2022-10-03T04:10:53.534Z,13.00
2022-10-03T04:13:42.420Z,12.57
2022-10-03T04:16:48.458Z,14.83
2022-10-03T04:19:32.970Z,12.27
2022-10-03T04:22:25.701Z,12.97
2022-10-03T04:25:20.593Z,11.90
2022-10-03T04:28:18.775Z,12.40
2022-10-03T04:30:56.559Z,12.30
2022-10-03T04:34:01.492Z,12.90
2022-10-03T04:36:56.104Z,11.70
2022-10-03T04:40:08.593Z,12.20
2022-10-03T04:42:50.606Z,12.87
2022-10-03T04:45:36.040Z,13.20
2022-10-03T04:48:42.724Z,11.93
2022-10-03T04:51:19.295Z,12.30
2022-10-03T04:54:06.969Z,11.80
2022-10-03T04:57:00.780Z,11.60
2022-10-03T04:59:50.274Z,11.50
2022-10-03T05:02:27.818Z,11.17
2022-10-03T05:05:32.151Z,11.93
2022-10-03T05:08:08.018Z,11.67
2022-10-03T05:11:00.447Z,10.70
2022-10-03T05:13:39.633Z,10.70
2022-10-03T05:16:22.005Z,11.67
2022-10-03T05:19:10.303Z,11.87
2022-10-03T05:21:42.315Z,11.67
2022-10-03T05:24:34.659Z,11.20
2022-10-03T05:27:13.773Z,11.53
2022-10-03T05:30:22.734Z,11.37
2022-10-03T05:33:03.849Z,12.63
2022-10-03T05:35:39.011Z,10.73
2022-10-03T05:38:36.235Z,11.43
2022-10-03T05:41:15.041Z,11.50
2022-10-03T05:43:50.783Z,11.37
2022-10-03T05:46:56.179Z,11.60
2022-10-03T05:49:44.783Z,10.87
2022-10-03T05:52:23.791Z,11.30
2022-10-03T05:55:11.123Z,11.40
2022-10-03T05:58:20.283Z,11.53
2022-10-03T06:01:09.475Z,11.70
2022-10-03T06:04:05.089Z,12.27
2022-10-03T06:07:12.551Z,11.90
2022-10-03T06:10:18.711Z,12.30
2022-10-03T06:12:53.562Z,11.57
2022-10-03T06:15:32.250Z,12.53
2022-10-03T06:18:22.527Z,12.17
2022-10-03T06:21:17.891Z,11.70
2022-10-03T06:24:06.021Z,12.10
2022-10-03T06:27:18.663Z,13.30
2022-10-03T06:30:19.540Z,11.73
2022-10-03T06:33:07.959Z,12.90
2022-10-03T06:36:08.490Z,12.07
2022-10-03T06:38:53.767Z,12.23
2022-10-03T06:41:43.106Z,12.30
2022-10-03T06:44:33.913Z,13.43
2022-10-03T06:47:10.777Z,14.97
2022-10-03T06:50:05.094Z,14.53
2022-10-03T06:53:10.790Z,14.73
2022-10-03T06:56:10.027Z,15.07
2022-10-03T06:59:16.095Z,15.87
2022-10-03T07:02:15.320Z,15.50
2022-10-03T07:05:06.704Z,13.50
2022-10-03T07:07:46.165Z,14.10
2022-10-03T07:10:31.869Z,14.00
2022-10-03T07:13:10.746Z,13.27
2022-10-03T07:16:02.285Z,13.07
2022-10-03T07:18:52.685Z,12.80
2022-10-03T07:21:51.972Z,13.57
2022-10-03T07:24:27.487Z,14.23
2022-10-03T07:26:57.164Z,13.93
2022-10-03T07:29:44.387Z,13.30
2022-10-03T07:32:20.563Z,13.80
2022-10-03T07:35:26.574Z,13.10
2022-10-03T07:38:29.209Z,13.60
2022-10-03T07:41:20.286Z,12.97
2022-10-03T07:44:06.247Z,14.30
2022-10-03T07:46:42.140Z,14.47
2022-10-03T07:49:52.680Z,13.47
2022-10-03T07:52:55.171Z,12.77
2022-10-03T07:55:26.618Z,13.00
2022-10-03T07:58:08.431Z,13.27
2022-10-03T08:01:05.979Z,13.30
2022-10-03T08:04:16.062Z,12.47
2022-10-03T08:06:48.238Z,12.00
2022-10-03T08:09:50.853Z,12.20
2022-10-03T08:12:32.779Z,11.23
2022-10-03T08:15:51.020Z,10.90
2022-10-03T08:18:26.779Z,10.37
2022-10-03T08:21:01.541Z,10.63
2022-10-03T08:24:10.235Z,9.93
2022-10-03T08:27:00.939Z,10.03
2022-10-03T08:29:49.478Z,31.53
2022-10-03T08:32:37.303Z,10.40
2022-10-03T08:35:16.697Z,9.80
2022-10-03T08:38:20.018Z,6.57
2022-10-03T08:41:24.592Z,6.40
2022-10-03T08:44:19.298Z,4.87
2022-10-03T08:47:07.933Z,5.37
2022-10-03T08:50:05.862Z,5.50
2022-10-03T08:53:00.350Z,5.60
2022-10-03T08:55:46.160Z,5.33
2022-10-03T08:58:25.187Z,4.73
2022-10-03T09:01:29.779Z,4.60
2022-10-03T09:04:02.618Z,4.20
2022-10-03T09:07:18.736Z,4.23
2022-10-03T09:10:07.803Z,4.40
2022-10-03T09:13:05.973Z,4.40
2022-10-03T09:15:54.492Z,4.47
2022-10-03T09:18:56.571Z,3.90
2022-10-03T09:21:41.861Z,3.90
2022-10-03T09:24:47.490Z,3.80
2022-10-03T09:27:27.016Z,3.53
2022-10-03T09:30:39.143Z,6.10
2022-10-03T09:33:43.229Z,7.83
2022-10-03T09:36:13.064Z,5.13
2022-10-03T09:38:57.990Z,3.60
2022-10-03T09:41:40.201Z,4.00
2022-10-03T09:44:10.006Z,3.60
2022-10-03T09:46:46.723Z,3.77
2022-10-03T09:49:40.650Z,3.77
2022-10-03T09:52:29.472Z,2.60
2022-10-03T09:55:21.134Z,3.37
2022-10-03T09:58:18.603Z,3.20
2022-10-03T10:00:54.693Z,2.60
2022-10-03T10:03:42.066Z,3.27
2022-10-03T10:06:49.597Z,2.93
2022-10-03T10:09:41.689Z,2.57
2022-10-03T10:12:55.839Z,2.50
2022-10-03T10:15:25.446Z,2.70
2022-10-03T10:17:55.007Z,2.40
2022-10-03T10:20:27.618Z,2.67
2022-10-03T10:23:11.135Z,2.37
2022-10-03T10:26:04.776Z,2.33
2022-10-03T10:28:52.578Z,1.53
2022-10-03T10:31:58.271Z,2.20
2022-10-03T10:34:49.213Z,2.10
2022-10-03T10:37:55.131Z,1.90
2022-10-03T10:40:37.302Z,2.07
2022-10-03T10:43:25.764Z,2.20
2022-10-03T10:46:29.211Z,1.83
2022-10-03T10:49:20.791Z,2.83
2022-10-03T10:52:24.980Z,2.40
2022-10-03T10:55:03.774Z,1.90
2022-10-03T10:57:54.562Z,4.00
2022-10-03T11:00:33.228Z,3.13
2022-10-03T11:03:37.553Z,2.00
2022-10-03T11:06:13.214Z,1.70
2022-10-03T11:09:16.994Z,1.97
2022-10-03T11:12:21.541Z,2.97
2022-10-03T11:14:57.538Z,2.70
2022-10-03T11:17:54.072Z,2.90
2022-10-03T11:20:45.736Z,2.60
2022-10-03T11:23:40.294Z,2.07
2022-10-03T11:26:57.866Z,2.23
2022-10-03T11:29:38.398Z,2.23
2022-10-03T11:32:26.631Z,2.33
2022-10-03T11:35:15.165Z,2.37
2022-10-03T11:38:16.866Z,1.87
2022-10-03T11:40:56.733Z,1.73
2022-10-03T11:43:51.802Z,2.17
2022-10-03T11:46:56.054Z,1.73
2022-10-03T11:49:37.715Z,1.60
2022-10-03T11:52:04.678Z,1.60
2022-10-03T11:54:38.234Z,1.77
2022-10-03T11:57:19.243Z,1.47
2022-10-03T12:00:03.478Z,1.50
2022-10-03T12:03:03.815Z,1.50
2022-10-03T12:06:20.279Z,1.60
2022-10-03T12:09:20.409Z,1.40
2022-10-03T12:11:56.446Z,1.53
2022-10-03T12:14:34.623Z,1.27
2022-10-03T12:17:16.126Z,1.50
2022-10-03T12:19:55.394Z,1.40
2022-10-03T12:22:43.179Z,1.30
2022-10-03T12:25:24.433Z,1.43
2022-10-03T12:27:57.449Z,1.80
2022-10-03T12:30:28.733Z,1.23
2022-10-03T12:33:01.527Z,1.40
2022-10-03T12:35:53.020Z,1.40
2022-10-03T12:38:41.452Z,1.30
2022-10-03T12:41:44.034Z,1.50
2022-10-03T12:44:42.316Z,1.30
2022-10-03T12:47:55.805Z,1.47
2022-10-03T12:50:55.301Z,1.30
2022-10-03T12:53:28.429Z,1.20
2022-10-03T12:55:58.406Z,1.60
2022-10-03T12:58:34.055Z,1.23
2022-10-03T13:01:20.662Z,1.30
2022-10-03T13:04:02.189Z,1.50
2022-10-03T13:06:58.344Z,1.40
2022-10-03T13:09:26.909Z,1.33
2022-10-03T13:12:01.111Z,1.60
2022-10-03T13:14:45.938Z,1.70
2022-10-03T13:17:39.519Z,1.50
2022-10-03T13:20:25.883Z,1.60
2022-10-03T13:23:20.585Z,1.80
2022-10-03T13:25:55.956Z,1.50
2022-10-03T13:29:01.743Z,1.73
2022-10-03T13:31:41.201Z,1.80
2022-10-03T13:34:18.862Z,1.60
2022-10-03T13:36:59.593Z,2.03
2022-10-03T13:39:42.019Z,3.70
2022-10-03T13:42:11.938Z,2.03
2022-10-03T13:44:44.444Z,2.30
2022-10-03T13:47:30.124Z,2.00
2022-10-03T13:50:03.159Z,2.00
2022-10-03T13:52:42.948Z,1.77
2022-10-03T13:55:28.913Z,1.83
2022-10-03T13:58:10.962Z,2.40
2022-10-03T14:01:02.426Z,1.60
2022-10-03T14:03:38.725Z,2.10
2022-10-03T14:06:26.589Z,2.20
2022-10-03T14:09:30.217Z,2.23
2022-10-03T14:12:00.238Z,2.07
2022-10-03T14:14:47.193Z,2.40
2022-10-03T14:17:29.626Z,1.70
2022-10-03T14:20:18.002Z,2.30
2022-10-03T14:23:10.693Z,2.20
2022-10-03T14:25:56.355Z,1.67
2022-10-03T14:28:41.453Z,2.20
2022-10-03T14:31:16.525Z,2.30
2022-10-03T14:34:16.824Z,2.00
2022-10-03T14:37:21.312Z,1.90
2022-10-03T14:40:05.681Z,1.63
2022-10-03T14:42:51.563Z,2.17
2022-10-03T14:45:26.510Z,2.10
2022-10-03T14:48:03.314Z,4.20
2022-10-03T14:50:31.871Z,10.53
2022-10-03T14:53:24.127Z,2.30
2022-10-03T14:56:00.113Z,2.10
2022-10-03T14:58:32.722Z,2.00
2022-10-03T15:01:07.766Z,2.00
2022-10-03T15:03:39.455Z,2.33
2022-10-03T15:06:48.942Z,2.17
2022-10-03T15:09:25.808Z,2.17
2022-10-03T15:12:20.861Z,2.23
2022-10-03T15:14:57.149Z,2.10
2022-10-03T15:17:34.042Z,2.00
2022-10-03T15:20:03.080Z,2.10
2022-10-03T15:22:34.271Z,2.20
2022-10-03T15:25:07.420Z,2.70
2022-10-03T15:27:35.693Z,2.43
2022-10-03T15:30:05.858Z,2.40
2022-10-03T15:32:38.581Z,2.07
2022-10-03T15:35:07.260Z,2.47
2022-10-03T15:37:46.896Z,2.47
2022-10-03T15:40:39.237Z,2.40
2022-10-03T15:43:38.278Z,2.33
2022-10-03T15:46:35.914Z,2.53
2022-10-03T15:49:09.265Z,2.70
2022-10-03T15:51:39.316Z,2.47
2022-10-03T15:54:09.363Z,2.63
2022-10-03T15:56:42.575Z,3.00
2022-10-03T15:59:20.192Z,2.80
2022-10-03T16:01:51.519Z,2.60
2022-10-03T16:04:26.185Z,3.60
2022-10-03T16:07:03.305Z,2.97
2022-10-03T16:09:52.047Z,5.07
2022-10-03T16:12:56.662Z,3.93
2022-10-03T16:15:43.597Z,3.33
2022-10-03T16:18:30.487Z,3.27
2022-10-03T16:21:00.487Z,2.83
2022-10-03T16:23:35.156Z,3.17
2022-10-03T16:26:11.819Z,3.00
2022-10-03T16:28:47.181Z,3.30
2022-10-03T16:31:26.735Z,2.60
2022-10-03T16:34:16.638Z,3.70
2022-10-03T16:36:47.147Z,3.30
2022-10-03T16:39:35.748Z,3.37
2022-10-03T16:42:20.672Z,4.30
2022-10-03T16:44:58.127Z,3.50
2022-10-03T16:47:44.022Z,3.83
2022-10-03T16:50:25.549Z,3.73
2022-10-03T16:52:56.533Z,3.97
2022-10-03T16:55:36.476Z,3.83
2022-10-03T16:58:24.331Z,18.90
2022-10-03T17:01:09.414Z,4.57
2022-10-03T17:03:44.307Z,4.13
2022-10-03T17:06:21.439Z,3.93
2022-10-03T17:08:52.894Z,3.93
2022-10-03T17:11:24.299Z,3.60
2022-10-03T17:13:56.527Z,3.80
2022-10-03T17:16:39.656Z,3.77
2022-10-03T17:19:21.282Z,3.97
2022-10-03T17:21:54.865Z,3.80
2022-10-03T17:24:42.532Z,4.47
2022-10-03T17:27:39.457Z,3.80
2022-10-03T17:30:44.996Z,4.37
2022-10-03T17:33:44.770Z,3.87
2022-10-03T17:36:14.446Z,3.50
2022-10-03T17:38:50.526Z,3.97
2022-10-03T17:41:40.280Z,6.20
2022-10-03T17:44:33.842Z,4.50
2022-10-03T17:47:27.239Z,4.20
2022-10-03T17:50:10.423Z,3.50
2022-10-03T17:52:41.853Z,3.90
2022-10-03T17:55:38.021Z,4.20
2022-10-03T17:58:16.733Z,4.00
2022-10-03T18:00:46.837Z,4.10
2022-10-03T18:03:27.956Z,4.10
2022-10-03T18:06:01.169Z,5.13
2022-10-03T18:08:31.805Z,4.80
2022-10-03T18:11:02.601Z,6.73
2022-10-03T18:13:36.543Z,5.63
2022-10-03T18:16:21.343Z,6.13
2022-10-03T18:19:25.892Z,5.10
2022-10-03T18:22:18.807Z,5.20
2022-10-03T18:24:54.977Z,6.93
2022-10-03T18:28:02.588Z,6.40
2022-10-03T18:30:46.409Z,6.80
2022-10-03T18:33:21.462Z,7.10
2022-10-03T18:35:49.258Z,10.20
2022-10-03T18:38:26.014Z,16.40
2022-10-03T18:40:56.447Z,13.63
2022-10-03T18:43:29.362Z,15.03
2022-10-03T18:46:19.226Z,15.13
2022-10-03T18:49:23.952Z,10.10
2022-10-03T18:51:51.221Z,9.10
2022-10-03T18:54:35.134Z,9.60
2022-10-03T18:57:07.450Z,10.07
2022-10-03T19:00:01.821Z,10.20
2022-10-03T19:03:08.792Z,9.13
2022-10-03T19:05:47.935Z,8.70
2022-10-03T19:08:24.499Z,8.90
2022-10-03T19:10:54.047Z,9.30
2022-10-03T19:13:40.706Z,10.10
2022-10-03T19:16:40.738Z,10.90
2022-10-03T19:19:20.914Z,12.17
2022-10-03T19:21:49.055Z,10.43
2022-10-03T19:24:39.823Z,10.80
2022-10-03T19:27:17.047Z,9.90
2022-10-03T19:29:48.377Z,9.93
2022-10-03T19:32:30.637Z,11.20
2022-10-03T19:35:02.636Z,16.17
2022-10-03T19:37:45.123Z,14.60
2022-10-03T19:40:38.307Z,12.60
2022-10-03T19:43:37.752Z,11.33
2022-10-03T19:46:32.159Z,11.80
2022-10-03T19:48:59.138Z,11.20
2022-10-03T19:51:27.595Z,11.50
2022-10-03T19:54:00.028Z,10.90
2022-10-03T19:56:31.370Z,10.73
2022-10-03T19:59:05.239Z,9.70
2022-10-03T20:01:44.057Z,11.13
2022-10-03T20:04:12.139Z,10.80
2022-10-03T20:06:49.264Z,10.90
2022-10-03T20:09:31.037Z,10.27
2022-10-03T20:12:11.264Z,9.73
2022-10-03T20:14:41.832Z,9.63
2022-10-03T20:17:15.714Z,9.37
2022-10-03T20:19:55.975Z,9.30
2022-10-03T20:22:26.509Z,8.00
2022-10-03T20:24:53.959Z,9.10
2022-10-03T20:27:43.281Z,9.10
2022-10-03T20:30:25.414Z,8.40
2022-10-03T20:32:53.963Z,8.80
2022-10-03T20:35:52.644Z,9.10
2022-10-03T20:38:34.678Z,15.30
2022-10-03T20:41:35.781Z,13.93
2022-10-03T20:44:02.634Z,11.10
2022-10-03T20:46:45.841Z,9.80
2022-10-03T20:49:31.127Z,10.10
2022-10-03T20:52:01.177Z,10.70
2022-10-03T20:54:46.147Z,10.90
2022-10-03T20:57:24.081Z,10.30
2022-10-03T21:00:11.776Z,10.17
2022-10-03T21:02:41.575Z,11.77
2022-10-03T21:05:46.486Z,10.03
2022-10-03T21:08:30.099Z,10.10
2022-10-03T21:11:04.079Z,10.70
2022-10-03T21:13:46.539Z,14.63
2022-10-03T21:16:20.984Z,17.80
2022-10-03T21:18:50.690Z,12.50
2022-10-03T21:21:40.927Z,14.07
2022-10-03T21:24:22.591Z,11.87
2022-10-03T21:26:58.676Z,10.03
2022-10-03T21:29:25.845Z,9.40
2022-10-03T21:32:30.331Z,8.90
2022-10-03T21:35:08.894Z,10.00
2022-10-03T21:37:35.866Z,10.20
2022-10-03T21:40:13.416Z,11.50
2022-10-03T21:42:55.322Z,11.50
2022-10-03T21:45:25.703Z,11.50
2022-10-03T21:48:09.557Z,11.17
2022-10-03T21:50:45.361Z,11.27
2022-10-03T21:53:40.371Z,10.20
2022-10-03T21:56:33.368Z,13.27
2022-10-03T21:59:15.218Z,11.80
2022-10-03T22:01:56.968Z,9.93
2022-10-03T22:04:37.531Z,10.23
2022-10-03T22:07:27.556Z,10.00
2022-10-03T22:09:55.963Z,8.87
2022-10-03T22:12:26.830Z,9.20
2022-10-03T22:15:03.555Z,10.80
2022-10-03T22:17:48.215Z,10.43
2022-10-03T22:20:24.273Z,9.33
2022-10-03T22:23:04.773Z,11.47
2022-10-03T22:25:34.403Z,10.23
2022-10-03T22:28:28.025Z,10.10
2022-10-03T22:31:08.945Z,10.57
2022-10-03T22:34:02.995Z,9.40
2022-10-03T22:36:30.459Z,9.10
2022-10-03T22:38:58.274Z,9.50
2022-10-03T22:41:30.513Z,9.77
2022-10-03T22:44:00.244Z,9.20
2022-10-03T22:46:31.542Z,9.23
2022-10-03T22:49:06.630Z,8.00
2022-10-03T22:51:36.583Z,8.47
2022-10-03T22:54:11.378Z,8.90
2022-10-03T22:56:47.230Z,9.03
2022-10-03T22:59:27.206Z,8.70
2022-10-03T23:01:58.563Z,8.60
2022-10-03T23:04:28.547Z,8.40
2022-10-03T23:07:20.401Z,8.30
2022-10-03T23:09:59.132Z,8.50
2022-10-03T23:12:30.631Z,8.10
2022-10-03T23:15:01.964Z,8.43
2022-10-03T23:17:46.851Z,8.67
2022-10-03T23:20:41.058Z,8.83
2022-10-03T23:23:20.001Z,9.33
2022-10-03T23:25:54.166Z,8.90
2022-10-03T23:28:48.607Z,9.00
2022-10-03T23:31:50.871Z,9.30
2022-10-03T23:34:38.715Z,8.30
2022-10-03T23:37:14.407Z,8.40
2022-10-03T23:39:51.759Z,8.17
2022-10-03T23:42:33.608Z,9.00
2022-10-03T23:45:07.256Z,8.20
2022-10-03T23:47:41.424Z,7.90
2022-10-03T23:50:10.120Z,7.90
2022-10-03T23:52:48.084Z,8.53
2022-10-03T23:55:27.415Z,7.63
2022-10-03T23:57:55.023Z,8.53
